createdAt,value
2019-02-03T00:01:15.161Z,59.30
2019-02-03T00:03:43.971Z,59.70
2019-02-03T00:06:12.828Z,59.40
2019-02-03T00:08:41.635Z,59.40
2019-02-03T00:11:10.363Z,59.40
2019-02-03T00:13:39.058Z,59.20
2019-02-03T00:16:07.792Z,59.20
2019-02-03T00:18:36.711Z,59.00
2019-02-03T00:21:05.504Z,58.90
2019-02-03T00:23:34.206Z,58.60
2019-02-03T00:26:03.245Z,58.80
2019-02-03T00:28:31.963Z,59.10
2019-02-03T00:31:00.657Z,59.20
2019-02-03T00:33:29.485Z,58.90
2019-02-03T00:35:58.189Z,59.10
2019-02-03T00:38:26.899Z,59.10
2019-02-03T00:40:55.765Z,58.90
2019-02-03T00:43:24.601Z,59.30
2019-02-03T00:45:53.373Z,59.30
2019-02-03T00:48:22.070Z,58.90
2019-02-03T00:50:50.794Z,59.40
2019-02-03T00:53:19.884Z,59.10
2019-02-03T00:55:48.595Z,59.20
2019-02-03T00:58:17.305Z,59.10
2019-02-03T01:00:46.020Z,59.20
2019-02-03T01:03:14.690Z,59.10
2019-02-03T01:05:43.503Z,59.20
2019-02-03T01:08:12.854Z,59.50
2019-02-03T01:10:41.627Z,59.80
2019-02-03T01:13:10.332Z,59.20
2019-02-03T01:15:39.022Z,59.30
2019-02-03T01:18:07.832Z,59.30
2019-02-03T01:20:36.519Z,59.10
2019-02-03T01:23:05.637Z,59.10
2019-02-03T01:25:34.344Z,58.90
2019-02-03T01:28:03.010Z,58.90
2019-02-03T01:30:31.751Z,58.70
2019-02-03T01:33:00.426Z,58.30
2019-02-03T01:35:29.318Z,58.20
2019-02-03T01:37:58.046Z,58.20
2019-02-03T01:40:26.758Z,58.20
2019-02-03T01:42:55.451Z,58.30
2019-02-03T01:45:24.243Z,58.20
2019-02-03T01:47:52.974Z,58.20
2019-02-03T01:50:21.715Z,58.20
2019-02-03T01:52:50.423Z,58.10
2019-02-03T01:55:21.446Z,57.90
2019-02-03T01:57:50.149Z,58.10
2019-02-03T02:00:20.964Z,57.70
2019-02-03T02:02:49.817Z,57.80
2019-02-03T02:05:18.920Z,58.30
2019-02-03T02:07:51.842Z,58.20
2019-02-03T02:10:20.403Z,58.30
2019-02-03T02:12:49.180Z,58.50
2019-02-03T02:15:20.085Z,58.30
2019-02-03T02:17:49.465Z,58.60
2019-02-03T02:20:20.319Z,58.50
2019-02-03T02:22:49.319Z,58.40
2019-02-03T02:25:18.096Z,58.60
2019-02-03T02:27:46.811Z,58.70
2019-02-03T02:30:18.006Z,58.60
2019-02-03T02:32:46.833Z,58.70
2019-02-03T02:35:15.898Z,58.60
2019-02-03T02:37:44.681Z,58.60
2019-02-03T02:40:16.331Z,58.60
2019-02-03T02:42:45.052Z,58.90
2019-02-03T02:45:14.740Z,58.90
2019-02-03T02:47:43.554Z,58.70
2019-02-03T02:50:21.240Z,59.60
2019-02-03T02:52:49.966Z,58.90
2019-02-03T02:55:18.728Z,58.80
2019-02-03T02:57:47.795Z,59.10
2019-02-03T03:00:19.012Z,59.00
2019-02-03T03:02:47.859Z,59.00
2019-02-03T03:05:16.548Z,59.10
2019-02-03T03:07:45.648Z,59.10
2019-02-03T03:10:16.583Z,59.10
2019-02-03T03:12:45.481Z,59.10
2019-02-03T03:15:19.592Z,59.10
2019-02-03T03:17:49.103Z,59.10
2019-02-03T03:20:22.196Z,59.20
2019-02-03T03:22:51.659Z,59.10
2019-02-03T03:25:23.463Z,59.30
2019-02-03T03:27:52.246Z,59.20
2019-02-03T03:30:22.964Z,59.40
2019-02-03T03:32:51.669Z,59.50
2019-02-03T03:35:20.369Z,59.50
2019-02-03T03:37:49.101Z,59.50
2019-02-03T03:40:20.462Z,59.80
2019-02-03T03:42:49.130Z,59.50
2019-02-03T03:45:17.867Z,59.50
2019-02-03T03:47:46.680Z,59.60
2019-02-03T03:50:16.282Z,59.50
2019-02-03T03:52:45.009Z,59.60
2019-02-03T03:55:13.967Z,59.70
2019-02-03T03:57:42.785Z,59.50
2019-02-03T04:00:19.673Z,59.40
2019-02-03T04:02:48.774Z,59.40
2019-02-03T04:05:17.655Z,59.20
2019-02-03T04:07:46.405Z,59.10
2019-02-03T04:10:17.694Z,59.40
2019-02-03T04:12:46.360Z,59.30
2019-02-03T04:15:16.975Z,59.70
2019-02-03T04:17:45.781Z,59.40
2019-02-03T04:20:17.446Z,59.20
2019-02-03T04:22:46.231Z,59.20
2019-02-03T04:25:14.875Z,59.40
2019-02-03T04:27:43.599Z,59.30
2019-02-03T04:30:15.697Z,59.40
2019-02-03T04:32:44.667Z,59.30
2019-02-03T04:35:13.437Z,59.40
2019-02-03T04:37:42.117Z,59.30
2019-02-03T04:40:13.535Z,59.50
2019-02-03T04:42:42.308Z,59.40
2019-02-03T04:45:13.590Z,59.20
2019-02-03T04:47:42.264Z,59.30
2019-02-03T04:50:13.164Z,59.20
2019-02-03T04:52:41.876Z,59.60
2019-02-03T04:55:13.546Z,59.30
2019-02-03T04:57:42.252Z,59.50
2019-02-03T05:00:17.132Z,59.40
2019-02-03T05:02:45.900Z,59.10
2019-02-03T05:05:14.630Z,59.30
2019-02-03T05:07:43.338Z,59.30
2019-02-03T05:10:14.261Z,58.70
2019-02-03T05:12:43.047Z,58.40
2019-02-03T05:15:14.586Z,58.30
2019-02-03T05:17:43.261Z,58.00
2019-02-03T05:20:14.382Z,57.80
2019-02-03T05:22:43.628Z,57.90
2019-02-03T05:25:14.025Z,57.60
2019-02-03T05:27:42.948Z,57.50
2019-02-03T05:30:14.616Z,57.10
2019-02-03T05:32:43.373Z,57.00
2019-02-03T05:35:12.259Z,57.20
2019-02-03T05:37:41.031Z,57.20
2019-02-03T05:40:12.556Z,57.30
2019-02-03T05:42:41.596Z,57.40
2019-02-03T05:45:13.117Z,57.60
2019-02-03T05:47:41.826Z,58.00
2019-02-03T05:50:13.411Z,57.70
2019-02-03T05:52:42.288Z,57.80
2019-02-03T05:55:11.707Z,57.50
2019-02-03T05:57:40.386Z,57.60
2019-02-03T06:00:12.261Z,57.80
2019-02-03T06:02:41.403Z,57.90
2019-02-03T06:05:10.398Z,57.90
2019-02-03T06:07:39.130Z,57.60
2019-02-03T06:10:10.820Z,57.90
2019-02-03T06:12:39.556Z,57.80
2019-02-03T06:15:09.254Z,57.90
2019-02-03T06:17:37.936Z,57.50
2019-02-03T06:20:12.431Z,57.80
2019-02-03T06:22:41.158Z,57.90
2019-02-03T06:25:11.573Z,57.80
2019-02-03T06:27:40.335Z,57.90
2019-02-03T06:30:24.752Z,57.90
2019-02-03T06:32:53.608Z,57.60
2019-02-03T06:35:22.364Z,57.80
2019-02-03T06:37:51.085Z,57.80
2019-02-03T06:40:20.332Z,57.70
2019-02-03T06:42:49.010Z,57.80
2019-02-03T06:45:28.138Z,57.90
2019-02-03T06:47:59.398Z,57.90
2019-02-03T06:50:27.799Z,58.10
2019-02-03T06:52:56.686Z,58.30
2019-02-03T06:55:25.419Z,58.50
2019-02-03T06:57:54.100Z,58.90
2019-02-03T07:00:22.884Z,58.70
2019-02-03T07:02:51.668Z,58.40
2019-02-03T07:05:20.600Z,59.10
2019-02-03T07:07:49.313Z,58.90
2019-02-03T07:10:18.036Z,58.90
2019-02-03T07:12:46.866Z,59.00
2019-02-03T07:15:15.562Z,59.30
2019-02-03T07:17:44.266Z,59.10
2019-02-03T07:20:17.510Z,59.30
2019-02-03T07:22:46.257Z,59.10
2019-02-03T07:25:15.031Z,59.20
2019-02-03T07:27:43.789Z,59.40
2019-02-03T07:30:20.895Z,59.40
2019-02-03T07:32:50.899Z,60.00
2019-02-03T07:35:19.584Z,59.40
2019-02-03T07:37:48.310Z,59.40
2019-02-03T07:40:21.681Z,59.50
2019-02-03T07:42:50.435Z,59.40
2019-02-03T07:45:19.176Z,59.40
2019-02-03T07:47:47.964Z,59.50
2019-02-03T07:50:17.396Z,59.20
2019-02-03T07:52:46.108Z,59.20
2019-02-03T07:55:15.554Z,59.20
2019-02-03T07:57:44.280Z,59.40
2019-02-03T08:00:19.868Z,59.50
2019-02-03T08:02:48.598Z,59.40
2019-02-03T08:05:17.536Z,59.30
2019-02-03T08:07:46.304Z,59.20
2019-02-03T08:10:24.389Z,59.50
2019-02-03T08:12:47.406Z,59.40
2019-02-03T08:15:19.523Z,59.40
2019-02-03T08:17:48.441Z,59.50
2019-02-03T08:20:19.875Z,59.60
2019-02-03T08:22:48.607Z,59.60
2019-02-03T08:25:18.520Z,59.60
2019-02-03T08:27:47.606Z,59.50
2019-02-03T08:30:30.303Z,59.50
2019-02-03T08:32:59.006Z,59.60
2019-02-03T08:35:27.727Z,59.50
2019-02-03T08:37:56.409Z,59.60
2019-02-03T08:40:36.524Z,59.40
2019-02-03T08:42:58.531Z,59.70
2019-02-03T08:45:27.394Z,59.70
2019-02-03T08:47:56.195Z,59.80
2019-02-03T08:50:25.187Z,59.90
2019-02-03T08:52:54.263Z,59.90
2019-02-03T08:55:23.028Z,59.70
2019-02-03T08:57:51.716Z,59.90
2019-02-03T09:00:31.256Z,59.70
2019-02-03T09:02:59.929Z,59.90
2019-02-03T09:05:29.148Z,59.70
2019-02-03T09:07:57.903Z,59.50
2019-02-03T09:10:26.690Z,59.20
2019-02-03T09:12:55.380Z,59.90
2019-02-03T09:15:29.220Z,59.90
2019-02-03T09:17:57.982Z,59.70
2019-02-03T09:20:32.149Z,59.70
2019-02-03T09:23:00.919Z,59.10
2019-02-03T09:25:29.918Z,59.70
2019-02-03T09:27:58.599Z,59.50
2019-02-03T09:30:32.375Z,59.70
2019-02-03T09:33:01.156Z,59.40
2019-02-03T09:35:30.206Z,59.80
2019-02-03T09:37:58.880Z,59.40
2019-02-03T09:40:34.802Z,59.20
2019-02-03T09:43:03.633Z,59.10
2019-02-03T09:45:32.737Z,59.20
2019-02-03T09:48:01.428Z,59.20
2019-02-03T09:50:31.362Z,60.00
2019-02-03T09:53:01.515Z,59.60
2019-02-03T09:55:30.960Z,59.50
2019-02-03T09:58:00.495Z,59.40
2019-02-03T10:00:31.829Z,59.30
2019-02-03T10:03:01.254Z,59.10
2019-02-03T10:05:30.073Z,59.20
2019-02-03T10:07:58.855Z,59.20
2019-02-03T10:10:33.375Z,59.20
2019-02-03T10:13:02.070Z,59.00
2019-02-03T10:15:30.767Z,59.10
2019-02-03T10:17:59.554Z,59.00
2019-02-03T10:20:28.516Z,59.10
2019-02-03T10:22:57.248Z,59.00
2019-02-03T10:25:28.694Z,58.50
2019-02-03T10:27:57.559Z,58.50
2019-02-03T10:30:27.519Z,58.50
2019-02-03T10:32:57.000Z,58.20
2019-02-03T10:35:28.332Z,58.10
2019-02-03T10:37:59.537Z,58.10
2019-02-03T10:40:30.223Z,57.80
2019-02-03T10:43:00.136Z,57.70
2019-02-03T10:45:29.187Z,57.60
2019-02-03T10:47:57.904Z,57.50
2019-02-03T10:50:29.084Z,57.40
2019-02-03T10:52:57.989Z,57.10
2019-02-03T10:55:26.669Z,57.20
2019-02-03T10:57:55.709Z,57.20
2019-02-03T11:00:29.625Z,57.20
2019-02-03T11:02:58.430Z,56.70
2019-02-03T11:05:29.929Z,56.70
2019-02-03T11:07:59.069Z,56.50
2019-02-03T11:10:28.873Z,56.50
2019-02-03T11:12:57.904Z,56.20
2019-02-03T11:15:27.105Z,55.60
2019-02-03T11:17:56.081Z,55.60
2019-02-03T11:20:30.160Z,55.80
2019-02-03T11:22:59.035Z,55.80
2019-02-03T11:25:29.312Z,55.40
2019-02-03T11:27:58.075Z,55.10
2019-02-03T11:30:30.879Z,55.00
2019-02-03T11:33:05.525Z,54.70
2019-02-03T11:35:32.157Z,54.60
2019-02-03T11:38:01.015Z,54.50
2019-02-03T11:40:32.272Z,54.70
2019-02-03T11:43:01.136Z,54.70
2019-02-03T11:45:35.138Z,54.60
2019-02-03T11:48:05.908Z,54.20
2019-02-03T11:50:37.451Z,53.90
2019-02-03T11:53:08.617Z,53.40
2019-02-03T11:55:37.538Z,53.60
2019-02-03T11:58:06.724Z,53.40
2019-02-03T12:00:35.909Z,53.50
2019-02-03T12:03:05.640Z,53.40
2019-02-03T12:05:34.371Z,53.50
2019-02-03T12:08:03.274Z,53.20
2019-02-03T12:10:32.256Z,52.80
2019-02-03T12:13:00.939Z,52.40
2019-02-03T12:15:29.749Z,52.60
2019-02-03T12:17:58.586Z,52.50
2019-02-03T12:20:27.331Z,52.70
2019-02-03T12:22:56.064Z,52.40
2019-02-03T12:25:30.297Z,52.40
2019-02-03T12:27:59.000Z,52.20
2019-02-03T12:30:30.038Z,52.20
2019-02-03T12:32:59.295Z,52.00
2019-02-03T12:35:28.118Z,52.10
2019-02-03T12:37:56.799Z,51.80
2019-02-03T12:40:27.996Z,51.80
2019-02-03T12:42:57.102Z,51.80
2019-02-03T12:45:26.379Z,51.80
2019-02-03T12:47:55.208Z,51.60
2019-02-03T12:50:23.928Z,51.60
2019-02-03T12:52:52.712Z,51.40
2019-02-03T12:55:23.691Z,51.40
2019-02-03T12:57:52.516Z,51.10
2019-02-03T13:00:30.279Z,51.20
2019-02-03T13:02:59.185Z,51.60
2019-02-03T13:05:29.288Z,51.00
2019-02-03T13:07:59.516Z,51.20
2019-02-03T13:10:33.292Z,51.00
2019-02-03T13:13:02.015Z,51.30
2019-02-03T13:15:33.488Z,51.50
2019-02-03T13:18:02.382Z,51.60
2019-02-03T13:20:31.919Z,51.50
2019-02-03T13:23:01.371Z,51.60
2019-02-03T13:25:30.111Z,51.80
2019-02-03T13:27:58.791Z,51.20
2019-02-03T13:30:30.447Z,50.80
2019-02-03T13:33:22.353Z,51.30
2019-02-03T13:35:51.067Z,51.20
2019-02-03T13:38:19.830Z,51.20
2019-02-03T13:40:48.765Z,51.20
2019-02-03T13:43:17.502Z,51.20
2019-02-03T13:45:46.209Z,51.30
2019-02-03T13:48:15.164Z,50.90
2019-02-03T13:50:44.027Z,51.10
2019-02-03T13:53:12.807Z,51.20
2019-02-03T13:55:41.577Z,50.60
2019-02-03T13:58:10.679Z,50.60
2019-02-03T14:00:44.533Z,50.20
2019-02-03T14:03:13.844Z,50.30
2019-02-03T14:05:42.598Z,50.30
2019-02-03T14:08:11.490Z,50.90
2019-02-03T14:10:40.615Z,50.30
2019-02-03T14:13:09.869Z,50.40
2019-02-03T14:15:38.657Z,50.20
2019-02-03T14:18:07.509Z,50.20
2019-02-03T14:20:36.283Z,50.00
2019-02-03T14:23:05.275Z,50.30
2019-02-03T14:25:33.983Z,50.40
2019-02-03T14:28:02.718Z,50.50
2019-02-03T14:30:40.510Z,51.10
2019-02-03T14:33:06.785Z,50.40
2019-02-03T14:35:35.605Z,50.60
2019-02-03T14:38:05.649Z,50.80
2019-02-03T14:40:34.472Z,50.60
2019-02-03T14:43:03.307Z,50.20
2019-02-03T14:45:32.298Z,50.40
2019-02-03T14:48:01.486Z,51.30
2019-02-03T14:50:30.214Z,50.90
2019-02-03T14:53:07.550Z,50.90
2019-02-03T14:55:38.775Z,50.80
2019-02-03T14:58:07.947Z,50.90
2019-02-03T15:00:42.186Z,50.60
2019-02-03T15:03:13.548Z,51.00
2019-02-03T15:05:42.265Z,50.90
2019-02-03T15:08:11.657Z,50.80
2019-02-03T15:10:40.414Z,51.00
2019-02-03T15:13:14.599Z,50.80
2019-02-03T15:15:39.536Z,50.90
2019-02-03T15:18:08.351Z,50.60
2019-02-03T15:20:37.189Z,50.80
2019-02-03T15:23:06.654Z,50.60
2019-02-03T15:25:35.549Z,51.30
2019-02-03T15:28:05.963Z,50.40
2019-02-03T15:30:40.367Z,50.50
2019-02-03T15:33:09.236Z,50.60
2019-02-03T15:35:38.096Z,50.60
2019-02-03T15:38:07.199Z,50.70
2019-02-03T15:40:36.000Z,50.60
2019-02-03T15:43:05.716Z,50.40
2019-02-03T15:45:34.407Z,50.50
2019-02-03T15:48:03.263Z,50.60
2019-02-03T15:50:32.102Z,50.60
2019-02-03T15:53:00.880Z,50.40
2019-02-03T15:55:34.906Z,51.00
2019-02-03T15:58:03.716Z,50.70
2019-02-03T16:00:35.219Z,50.70
2019-02-03T16:03:08.314Z,50.60
2019-02-03T16:05:35.891Z,50.80
2019-02-03T16:08:05.100Z,50.70
2019-02-03T16:10:33.849Z,50.50
2019-02-03T16:13:02.613Z,50.50
2019-02-03T16:15:31.344Z,50.50
2019-02-03T16:18:00.143Z,50.60
2019-02-03T16:20:30.782Z,50.60
2019-02-03T16:23:00.494Z,50.30
2019-02-03T16:25:29.323Z,50.40
2019-02-03T16:27:58.072Z,50.00
2019-02-03T16:30:29.293Z,50.20
2019-02-03T16:32:58.348Z,50.00
2019-02-03T16:35:27.058Z,49.70
2019-02-03T16:37:55.805Z,50.10
2019-02-03T16:40:29.784Z,50.10
2019-02-03T16:42:58.534Z,50.10
2019-02-03T16:45:27.467Z,49.90
2019-02-03T16:47:56.222Z,49.90
2019-02-03T16:50:27.647Z,49.80
2019-02-03T16:52:57.531Z,49.90
2019-02-03T16:55:26.466Z,50.00
2019-02-03T16:57:55.267Z,49.80
2019-02-03T17:00:26.307Z,49.50
2019-02-03T17:02:55.389Z,49.70
2019-02-03T17:05:26.353Z,49.70
2019-02-03T17:07:55.380Z,49.70
2019-02-03T17:10:25.555Z,49.90
2019-02-03T17:12:54.833Z,49.80
2019-02-03T17:15:25.855Z,50.00
2019-02-03T17:17:54.965Z,49.90
2019-02-03T17:20:23.746Z,49.90
2019-02-03T17:22:52.705Z,49.90
2019-02-03T17:25:30.398Z,49.90
2019-02-03T17:27:59.136Z,50.00
2019-02-03T17:30:27.994Z,49.80
2019-02-03T17:32:56.701Z,49.80
2019-02-03T17:35:25.523Z,49.70
2019-02-03T17:37:54.216Z,50.00
2019-02-03T17:40:23.021Z,50.00
2019-02-03T17:42:51.771Z,50.30
2019-02-03T17:45:22.566Z,50.30
2019-02-03T17:47:51.379Z,50.30
2019-02-03T17:50:29.113Z,50.20
2019-02-03T17:52:58.062Z,50.40
2019-02-03T17:55:26.816Z,50.30
2019-02-03T17:57:55.615Z,50.20
2019-02-03T18:00:34.474Z,50.40
2019-02-03T18:03:03.208Z,50.40
2019-02-03T18:05:31.885Z,50.40
2019-02-03T18:08:00.586Z,50.50
2019-02-03T18:10:29.313Z,50.30
2019-02-03T18:12:58.027Z,50.20
2019-02-03T18:15:26.787Z,50.10
2019-02-03T18:17:55.513Z,50.10
2019-02-03T18:20:26.124Z,50.00
2019-02-03T18:22:54.789Z,49.90
2019-02-03T18:25:23.888Z,50.10
2019-02-03T18:27:52.607Z,49.60
2019-02-03T18:30:29.969Z,50.00
2019-02-03T18:33:00.218Z,50.20
2019-02-03T18:35:28.948Z,49.70
2019-02-03T18:38:10.062Z,50.20
2019-02-03T18:40:38.782Z,50.00
2019-02-03T18:43:07.860Z,49.80
2019-02-03T18:45:36.721Z,49.60
2019-02-03T18:48:05.522Z,49.80
2019-02-03T18:50:34.598Z,49.80
2019-02-03T18:53:03.387Z,49.50
2019-02-03T18:55:45.821Z,49.40
2019-02-03T18:58:14.567Z,49.50
2019-02-03T19:00:43.336Z,49.10
2019-02-03T19:03:12.037Z,49.30
2019-02-03T19:05:42.600Z,49.10
2019-02-03T19:08:11.297Z,49.70
2019-02-03T19:10:39.971Z,49.10
2019-02-03T19:13:08.690Z,49.20
2019-02-03T19:15:37.568Z,49.10
2019-02-03T19:18:07.080Z,49.20
2019-02-03T19:20:41.432Z,49.20
2019-02-03T19:23:11.028Z,49.40
2019-02-03T19:25:39.997Z,49.50
2019-02-03T19:28:08.810Z,49.50
2019-02-03T19:30:37.476Z,49.50
2019-02-03T19:33:06.582Z,49.40
2019-02-03T19:35:35.849Z,49.70
2019-02-03T19:38:06.935Z,49.40
2019-02-03T19:40:35.867Z,49.50
2019-02-03T19:43:05.771Z,49.40
2019-02-03T19:45:34.642Z,49.30
2019-02-03T19:48:03.500Z,49.50
2019-02-03T19:50:37.769Z,49.90
2019-02-03T19:53:07.754Z,49.70
2019-02-03T19:55:36.501Z,49.50
2019-02-03T19:58:07.222Z,49.50
2019-02-03T20:00:38.253Z,49.80
2019-02-03T20:03:07.749Z,49.60
2019-02-03T20:05:36.424Z,49.60
2019-02-03T20:08:05.821Z,49.70
2019-02-03T20:10:34.982Z,49.70
2019-02-03T20:13:03.989Z,49.60
2019-02-03T20:15:32.764Z,49.70
2019-02-03T20:18:01.581Z,49.80
2019-02-03T20:20:38.429Z,50.00
2019-02-03T20:23:07.522Z,49.90
2019-02-03T20:25:36.282Z,50.10
2019-02-03T20:28:06.065Z,50.10
2019-02-03T20:30:38.582Z,49.90
2019-02-03T20:33:05.489Z,50.00
2019-02-03T20:35:34.159Z,50.30
2019-02-03T20:38:03.336Z,50.00
2019-02-03T20:40:40.748Z,50.20
2019-02-03T20:43:09.514Z,50.00
2019-02-03T20:45:49.058Z,50.00
2019-02-03T20:48:10.705Z,50.70
2019-02-03T20:50:39.117Z,50.10
2019-02-03T20:53:07.869Z,50.30
2019-02-03T20:55:36.549Z,49.90
2019-02-03T20:58:05.332Z,50.20
2019-02-03T21:00:36.272Z,50.00
2019-02-03T21:03:05.945Z,50.10
2019-02-03T21:05:35.017Z,50.40
2019-02-03T21:08:04.495Z,50.40
2019-02-03T21:10:33.215Z,50.30
2019-02-03T21:13:10.785Z,50.20
2019-02-03T21:15:33.961Z,50.20
2019-02-03T21:18:02.757Z,50.10
2019-02-03T21:20:33.575Z,50.20
2019-02-03T21:23:02.464Z,50.50
2019-02-03T21:25:31.407Z,50.40
2019-02-03T21:28:01.345Z,50.50
2019-02-03T21:30:35.471Z,50.20
2019-02-03T21:33:04.654Z,50.10
2019-02-03T21:35:33.400Z,50.40
2019-02-03T21:38:02.306Z,50.10
2019-02-03T21:40:32.109Z,50.20
2019-02-03T21:43:01.388Z,50.10
2019-02-03T21:45:30.139Z,50.40
2019-02-03T21:48:00.285Z,50.40
2019-02-03T21:50:30.635Z,50.30
2019-02-03T21:52:59.727Z,50.30
2019-02-03T21:55:28.511Z,50.00
2019-02-03T21:57:57.284Z,50.20
2019-02-03T22:00:28.732Z,50.40
2019-02-03T22:02:57.520Z,50.50
2019-02-03T22:05:26.430Z,50.60
2019-02-03T22:07:55.111Z,50.60
2019-02-03T22:10:26.087Z,50.40
2019-02-03T22:12:55.559Z,50.70
2019-02-03T22:15:24.285Z,50.50
2019-02-03T22:17:52.960Z,50.50
2019-02-03T22:20:23.168Z,50.40
2019-02-03T22:22:51.853Z,50.30
2019-02-03T22:25:20.574Z,50.30
2019-02-03T22:27:49.614Z,50.40
2019-02-03T22:30:30.111Z,50.40
2019-02-03T22:32:58.794Z,50.30
2019-02-03T22:35:27.486Z,50.40
2019-02-03T22:37:56.155Z,50.40
2019-02-03T22:40:25.322Z,50.50
2019-02-03T22:42:54.100Z,50.50
2019-02-03T22:45:24.581Z,50.50
2019-02-03T22:47:53.304Z,50.50
2019-02-03T22:50:27.159Z,50.60
2019-02-03T22:52:56.464Z,50.90
2019-02-03T22:55:25.193Z,50.90
2019-02-03T22:57:53.867Z,51.00
2019-02-03T23:00:51.917Z,50.90
2019-02-03T23:03:23.895Z,50.90
2019-02-03T23:05:53.866Z,50.90
2019-02-03T23:08:22.597Z,51.30
2019-02-03T23:10:51.687Z,51.10
2019-02-03T23:13:20.486Z,51.00
2019-02-03T23:15:49.959Z,51.10
2019-02-03T23:18:18.655Z,51.20
2019-02-03T23:20:47.442Z,51.30
2019-02-03T23:23:16.139Z,51.30
2019-02-03T23:25:44.909Z,51.20
2019-02-03T23:28:13.649Z,51.20
2019-02-03T23:30:42.800Z,51.30
2019-02-03T23:33:11.488Z,51.10
2019-02-03T23:35:40.149Z,51.10
2019-02-03T23:38:08.854Z,51.30
2019-02-03T23:40:37.622Z,51.30
2019-02-03T23:43:06.337Z,51.30
2019-02-03T23:45:35.463Z,51.30
2019-02-03T23:48:04.406Z,51.30
2019-02-03T23:50:33.082Z,51.30
2019-02-03T23:53:01.796Z,51.30
2019-02-03T23:55:30.460Z,51.30
2019-02-03T23:57:59.154Z,51.40
